Time;durP1;ratioP1;P1;durP2;ratioP2;P2;SDS_P1;SDS_P2;PMS_P1;PMS_P2;Temp;Humidity;BMP_temperature;BMP_pressure;BME280_temperature;BME280_humidity;BME280_pressure;Samples;Min_cycle;Max_cycle;Signal;HPM_P1;HPM_P2
2022/03/05 00:00:08;;;;;;;78.63;38.22;;;;;;;-0.20;100.00;97353.75;5016694;28;20029;-77
2022/03/05 00:02:34;;;;;;;77.75;37.80;;;;;;;-0.25;100.00;97345.13;5013244;28;20037;-76
2022/03/05 00:05:00;;;;;;;71.85;35.50;;;;;;;-0.19;100.00;97349.38;5032938;28;20035;-77
2022/03/05 00:07:26;;;;;;;79.30;37.78;;;;;;;-0.35;100.00;97346.22;5009535;28;20037;-76
2022/03/05 00:09:51;;;;;;;86.47;39.33;;;;;;;-0.40;100.00;97340.19;5016316;28;20045;-77
2022/03/05 00:12:17;;;;;;;87.93;41.63;;;;;;;-0.38;100.00;97340.16;5026558;28;20060;-76
2022/03/05 00:14:42;;;;;;;88.65;42.25;;;;;;;-0.45;100.00;97344.69;5018390;28;20040;-76
2022/03/05 00:17:08;;;;;;;94.78;42.58;;;;;;;-0.40;100.00;97334.09;5031966;28;20076;-75
2022/03/05 00:19:34;;;;;;;83.95;39.88;;;;;;;-0.35;100.00;97327.81;5032811;28;20029;-77
2022/03/05 00:22:01;;;;;;;85.10;40.00;;;;;;;-0.35;100.00;97333.06;5021344;28;20072;-77
2022/03/05 00:24:27;;;;;;;103.43;47.67;;;;;;;-0.29;100.00;97339.94;5026873;28;20421;-77
2022/03/05 00:26:53;;;;;;;93.85;44.40;;;;;;;-0.26;100.00;97326.75;5019816;28;20068;-76
2022/03/05 00:29:19;;;;;;;103.05;48.33;;;;;;;-0.33;100.00;97341.78;5005851;28;20034;-76
2022/03/05 00:31:45;;;;;;;95.13;46.17;;;;;;;-0.27;100.00;97340.75;5006334;28;20037;-76
2022/03/05 00:34:10;;;;;;;100.03;48.17;;;;;;;-0.33;100.00;97339.16;5019020;28;20025;-75
2022/03/05 00:36:37;;;;;;;97.47;45.75;;;;;;;-0.32;100.00;97346.16;5015624;28;20032;-76
2022/03/05 00:39:04;;;;;;;109.38;46.33;;;;;;;-0.32;100.00;97337.38;4996685;28;20068;-76
2022/03/05 00:41:29;;;;;;;105.93;49.22;;;;;;;-0.37;100.00;97340.09;5010035;28;20033;-76
2022/03/05 00:43:55;;;;;;;116.60;53.53;;;;;;;-0.34;100.00;97352.34;5019397;28;20021;-77
2022/03/05 00:46:21;;;;;;;121.22;57.67;;;;;;;-0.34;100.00;97347.91;5014047;28;20387;-77
2022/03/05 00:48:46;;;;;;;124.53;56.83;;;;;;;-0.32;100.00;97340.88;5009781;28;20025;-77
2022/03/05 00:51:12;;;;;;;83.60;39.75;;;;;;;-0.33;100.00;97349.66;5003703;28;20022;-76
2022/03/05 00:53:37;;;;;;;71.55;35.08;;;;;;;-0.47;100.00;97340.38;5012951;28;20041;-76
2022/03/05 00:56:04;;;;;;;61.55;29.52;;;;;;;-0.52;100.00;97334.34;5021909;28;20025;-77
2022/03/05 00:58:30;;;;;;;67.63;30.30;;;;;;;-0.51;100.00;97347.44;5023249;28;20089;-77
2022/03/05 01:00:56;;;;;;;101.18;43.95;;;;;;;-0.62;100.00;97339.81;5043024;28;20444;-77
2022/03/05 01:03:22;;;;;;;100.13;46.40;;;;;;;-0.66;100.00;97335.50;5033920;28;20416;-77
2022/03/05 01:05:48;;;;;;;83.28;38.33;;;;;;;-0.74;100.00;97336.59;5033628;28;20037;-77
2022/03/05 01:08:13;;;;;;;73.75;30.52;;;;;;;-0.84;100.00;97330.66;5017209;28;20030;-77
2022/03/05 01:10:39;;;;;;;55.08;26.45;;;;;;;-0.86;100.00;97340.31;5022795;28;20040;-77
2022/03/05 01:13:04;;;;;;;62.70;29.00;;;;;;;-0.89;100.00;97332.50;5031653;28;20032;-77
2022/03/05 01:15:30;;;;;;;56.85;27.77;;;;;;;-0.83;100.00;97324.50;5025018;28;20128;-76
2022/03/05 01:17:56;;;;;;;65.78;28.50;;;;;;;-0.84;100.00;97330.66;5032575;28;20542;-77
2022/03/05 01:20:22;;;;;;;77.38;33.63;;;;;;;-0.89;100.00;97329.03;5021434;28;20404;-76
2022/03/05 01:22:47;;;;;;;71.68;33.92;;;;;;;-0.93;100.00;97335.22;5025562;28;20043;-76
2022/03/05 01:25:13;;;;;;;71.20;33.58;;;;;;;-1.05;100.00;97323.22;5041441;28;20556;-77
2022/03/05 01:27:38;;;;;;;69.63;32.92;;;;;;;-1.09;100.00;97311.06;5016734;28;20437;-77
2022/03/05 01:30:04;;;;;;;71.38;33.03;;;;;;;-1.02;100.00;97325.78;5036323;28;20029;-75
2022/03/05 01:32:30;;;;;;;73.85;35.75;;;;;;;-1.00;100.00;97329.22;5027026;28;20087;-76
2022/03/05 01:34:56;;;;;;;78.45;35.15;;;;;;;-0.93;100.00;97332.59;5019862;28;20417;-76
2022/03/05 01:37:21;;;;;;;73.28;35.67;;;;;;;-0.95;100.00;97316.03;5033856;28;20083;-77
2022/03/05 01:39:47;;;;;;;78.00;34.63;;;;;;;-0.93;100.00;97332.59;5046675;28;20040;-76
2022/03/05 01:42:13;;;;;;;88.63;37.45;;;;;;;-0.94;100.00;97336.97;5031447;28;20413;-77
2022/03/05 01:44:38;;;;;;;82.25;39.42;;;;;;;-1.01;100.00;97340.63;5029202;28;20028;-77
2022/03/05 01:47:04;;;;;;;79.30;37.35;;;;;;;-1.23;100.00;97310.47;5016787;28;20179;-77
2022/03/05 01:49:30;;;;;;;82.97;36.58;;;;;;;-1.05;100.00;97336.34;5016246;28;20026;-76
2022/03/05 01:51:57;;;;;;;69.45;34.40;;;;;;;-1.02;100.00;97340.66;5028098;28;20056;-76
2022/03/05 01:54:23;;;;;;;72.95;33.72;;;;;;;-1.16;100.00;97323.41;5039637;28;20029;-76
2022/03/05 01:56:49;;;;;;;74.25;34.38;;;;;;;-1.14;100.00;97328.66;5033795;28;20032;-77
2022/03/05 01:59:15;;;;;;;86.45;40.78;;;;;;;-1.20;100.00;97307.78;5030902;28;20116;-75
2022/03/05 02:01:41;;;;;;;87.45;38.50;;;;;;;-1.11;100.00;97324.19;5031065;28;20069;-75
2022/03/05 02:04:07;;;;;;;75.95;36.60;;;;;;;-1.08;100.00;97322.41;5022866;28;20064;-75
2022/03/05 02:06:33;;;;;;;89.95;39.10;;;;;;;-1.01;100.00;97334.50;5028624;28;20028;-75
2022/03/05 02:08:58;;;;;;;100.30;43.65;;;;;;;-0.98;100.00;97335.31;5027284;28;20035;-75
2022/03/05 02:11:25;;;;;;;90.90;41.15;;;;;;;-0.96;100.00;97333.53;5022732;28;20120;-77
2022/03/05 02:13:51;;;;;;;95.38;42.63;;;;;;;-0.94;100.00;97338.72;5034235;28;20523;-77
2022/03/05 02:16:18;;;;;;;100.38;43.70;;;;;;;-0.97;100.00;97334.41;5022382;28;20112;-76
2022/03/05 02:18:48;;;;;;;94.90;42.60;;;;;;;-0.93;100.00;97348.34;5034161;28;20116;-77
2022/03/05 02:21:14;;;;;;;97.50;41.38;;;;;;;-1.01;100.00;97331.88;5025908;28;20025;-76
2022/03/05 02:23:40;;;;;;;91.53;40.15;;;;;;;-1.11;100.00;97341.72;5031669;28;20035;-76
2022/03/05 02:26:06;;;;;;;95.35;43.53;;;;;;;-1.16;100.00;97339.16;5033731;28;20108;-76
2022/03/05 02:28:33;;;;;;;97.45;42.17;;;;;;;-1.00;100.00;97350.22;5032644;28;20475;-76
2022/03/05 02:30:59;;;;;;;78.50;35.90;;;;;;;-1.16;100.00;97336.53;5021719;28;20397;-75
2022/03/05 02:33:25;;;;;;;76.13;34.15;;;;;;;-1.18;100.00;97334.84;5041701;28;20444;-76
2022/03/05 02:35:51;;;;;;;69.88;36.20;;;;;;;-1.29;100.00;97334.19;5044691;28;20029;-75
2022/03/05 02:38:18;;;;;;;81.63;37.97;;;;;;;-1.34;100.00;97342.13;5023796;28;20111;-75
2022/03/05 02:40:45;;;;;;;77.53;35.22;;;;;;;-1.27;100.00;97342.91;5024297;28;20452;-76
2022/03/05 02:43:11;;;;;;;87.10;39.33;;;;;;;-1.33;100.00;97343.00;5027535;28;20032;-77
2022/03/05 02:45:37;;;;;;;80.95;35.85;;;;;;;-1.26;100.00;97342.00;5031475;28;20037;-76
2022/03/05 02:48:05;;;;;;;68.13;32.70;;;;;;;-1.44;100.00;97323.97;5030815;28;20402;-75
2022/03/05 02:50:31;;;;;;;64.72;30.27;;;;;;;-1.24;100.00;97335.84;5022232;28;20024;-75
2022/03/05 02:52:57;;;;;;;65.68;30.02;;;;;;;-1.27;100.00;97337.66;5030448;28;20049;-75
2022/03/05 02:55:23;;;;;;;86.22;37.33;;;;;;;-1.33;100.00;97328.16;5042606;28;20079;-76
2022/03/05 02:57:48;;;;;;;64.47;29.55;;;;;;;-1.30;100.00;97337.72;5046510;28;20519;-75
2022/03/05 03:00:15;;;;;;;50.63;25.75;;;;;;;-1.35;100.00;97324.66;5030008;28;20131;-75
2022/03/05 03:02:41;;;;;;;56.70;25.83;;;;;;;-1.18;100.00;97343.59;5027015;28;20030;-76
2022/03/05 03:05:07;;;;;;;51.20;25.75;;;;;;;-1.17;100.00;97345.28;5018245;28;20021;-75
2022/03/05 03:07:33;;;;;;;58.58;28.67;;;;;;;-1.21;100.00;97354.13;5027378;28;20036;-76
2022/03/05 03:09:58;;;;;;;64.28;27.45;;;;;;;-1.32;100.00;97328.97;5026725;28;20025;-75
2022/03/05 03:12:25;;;;;;;59.78;27.75;;;;;;;-1.44;100.00;97350.19;5014819;28;20115;-75
2022/03/05 03:14:51;;;;;;;60.55;27.50;;;;;;;-1.36;100.00;97359.69;5022355;28;20044;-76
2022/03/05 03:17:17;;;;;;;54.95;25.50;;;;;;;-1.33;100.00;97350.88;5027350;28;20028;-77
2022/03/05 03:19:43;;;;;;;55.58;26.58;;;;;;;-1.39;100.00;97353.63;5026115;28;20025;-76
2022/03/05 03:22:09;;;;;;;55.28;25.90;;;;;;;-1.38;100.00;97344.84;5030982;28;20028;-76
2022/03/05 03:24:34;;;;;;;51.55;27.35;;;;;;;-1.32;100.00;97334.22;5018587;28;20112;-76
2022/03/05 03:27:00;;;;;;;59.85;27.77;;;;;;;-1.23;100.00;97350.66;5029446;28;20021;-75
2022/03/05 03:29:26;;;;;;;55.05;26.70;;;;;;;-1.29;100.00;97355.19;5041900;28;20060;-76
2022/03/05 03:31:51;;;;;;;52.05;26.15;;;;;;;-1.32;100.00;97344.72;5031416;28;20024;-76
2022/03/05 03:34:17;;;;;;;52.17;26.48;;;;;;;-1.31;100.00;97351.69;5019192;28;20497;-75
2022/03/05 03:36:42;;;;;;;59.67;27.55;;;;;;;-1.26;100.00;97353.34;5025739;28;20025;-76
2022/03/05 03:39:08;;;;;;;57.70;28.02;;;;;;;-1.21;100.00;97358.53;5016556;28;20033;-78
2022/03/05 03:41:34;;;;;;;57.58;28.45;;;;;;;-1.19;100.00;97362.84;5013034;28;20069;-75
2022/03/05 03:43:59;;;;;;;64.90;27.20;;;;;;;-1.32;100.00;97363.94;5036538;28;20044;-76
2022/03/05 03:46:25;;;;;;;63.83;30.40;;;;;;;-1.39;100.00;97364.97;5024921;28;20033;-77
2022/03/05 03:48:50;;;;;;;58.08;29.23;;;;;;;-1.42;100.00;97365.03;5024956;28;20090;-75
2022/03/05 03:51:16;;;;;;;63.55;29.30;;;;;;;-1.63;100.00;97349.66;5046110;28;20100;-76
2022/03/05 03:53:42;;;;;;;61.50;27.98;;;;;;;-1.59;100.00;97363.56;5033173;28;20041;-77
2022/03/05 03:56:07;;;;;;;67.28;30.15;;;;;;;-1.63;100.00;97359.31;5036645;28;20024;-75
2022/03/05 03:58:33;;;;;;;78.45;31.27;;;;;;;-1.54;100.00;97369.63;5017291;28;20044;-74
2022/03/05 04:00:59;;;;;;;77.45;32.83;;;;;;;-1.69;100.00;97363.72;5033377;28;20032;-75
2022/03/05 04:03:24;;;;;;;70.28;32.15;;;;;;;-1.70;100.00;97359.41;5018261;28;20131;-74
2022/03/05 04:05:50;;;;;;;69.22;31.02;;;;;;;-1.69;100.00;97370.72;5019238;28;20456;-75
2022/03/05 04:10:59;;;;;;;60.63;29.60;;;;;;;-1.71;100.00;97389.13;5041873;28;20228;-75
2022/03/05 04:13:25;;;;;;;65.75;29.42;;;;;;;-1.71;100.00;97383.88;5053196;28;20076;-76
2022/03/05 04:15:51;;;;;;;52.22;26.67;;;;;;;-1.85;100.00;97380.63;5053067;28;20029;-75
2022/03/05 04:18:17;;;;;;;63.75;28.67;;;;;;;-1.96;100.00;97377.28;5044671;28;20481;-75
2022/03/05 04:20:42;;;;;;;65.63;31.45;;;;;;;-1.84;100.00;97387.59;5023926;28;20036;-76
2022/03/05 04:23:08;;;;;;;70.15;30.17;;;;;;;-1.93;100.00;97384.22;5027938;28;20088;-76
2022/03/05 04:25:34;;;;;;;64.43;31.33;;;;;;;-1.87;100.00;97389.38;5036473;28;20527;-76
2022/03/05 04:27:59;;;;;;;65.15;30.30;;;;;;;-1.88;100.00;97385.06;5037629;28;20037;-77
2022/03/05 04:30:25;;;;;;;66.88;31.13;;;;;;;-1.97;100.00;97365.06;5027794;28;20028;-77
2022/03/05 04:32:50;;;;;;;80.40;34.45;;;;;;;-1.87;100.00;97376.28;5029370;28;20100;-76
2022/03/05 04:35:16;;;;;;;144.45;51.05;;;;;;;-1.81;100.00;97384.91;5032626;28;20065;-75
2022/03/05 04:37:42;;;;;;;127.18;49.30;;;;;;;-1.83;100.00;97377.97;5031441;28;20032;-75
2022/03/05 04:40:08;;;;;;;114.05;45.90;;;;;;;-1.77;100.00;97383.09;5026996;28;20037;-76
2022/03/05 04:42:34;;;;;;;107.43;43.75;;;;;;;-1.87;100.00;97371.91;5021873;28;20475;-75
2022/03/05 04:45:00;;;;;;;100.47;42.25;;;;;;;-1.80;100.00;97376.16;5020788;28;20129;-75
2022/03/05 04:47:26;;;;;;;100.93;40.90;;;;;;;-1.69;100.00;97386.47;5020858;28;20025;-75
2022/03/05 04:49:51;;;;;;;96.15;39.75;;;;;;;-1.84;100.00;97374.47;5029160;28;20032;-76
2022/03/05 04:52:17;;;;;;;85.18;39.35;;;;;;;-1.94;100.00;97386.03;5033700;28;20049;-75
2022/03/05 04:54:44;;;;;;;88.53;37.90;;;;;;;-2.09;100.00;97365.25;5016209;28;20496;-77
2022/03/05 04:57:09;;;;;;;99.95;39.65;;;;;;;-2.00;100.00;97375.59;5031854;28;20037;-75
2022/03/05 04:59:35;;;;;;;91.95;38.28;;;;;;;-1.92;100.00;97383.34;5032656;28;20021;-75
2022/03/05 05:02:01;;;;;;;83.47;36.38;;;;;;;-1.96;100.00;97381.66;5024122;28;20037;-75
2022/03/05 05:04:27;;;;;;;89.05;40.55;;;;;;;-1.91;100.00;97390.34;5015797;28;20051;-77
2022/03/05 05:06:53;;;;;;;93.03;41.38;;;;;;;-1.85;100.00;97396.34;5022046;28;20057;-75
2022/03/05 05:09:18;;;;;;;87.38;40.83;;;;;;;-1.83;100.00;97391.94;5040831;28;20072;-76
2022/03/05 05:11:44;;;;;;;85.65;38.00;;;;;;;-1.88;100.00;97382.44;5033763;28;20116;-76
2022/03/05 05:14:10;;;;;;;90.00;39.45;;;;;;;-1.84;100.00;97398.06;5033917;28;20447;-76
2022/03/05 05:16:37;;;;;;;96.85;42.50;;;;;;;-1.76;100.00;97398.81;5032365;28;20117;-76
2022/03/05 05:21:47;;;;;;;101.20;45.65;;;;;;;-1.68;100.00;97411.78;5028500;28;20113;-76
2022/03/05 05:24:12;;;;;;;98.28;46.17;;;;;;;-1.81;100.00;97413.75;5045692;28;20060;-75
2022/03/05 05:26:38;;;;;;;116.20;53.42;;;;;;;-1.77;100.00;97404.94;5024511;28;20104;-76
2022/03/05 05:29:04;;;;;;;101.28;47.22;;;;;;;-1.78;100.00;97418.06;5035105;28;20083;-77
2022/03/05 05:31:30;;;;;;;112.97;47.83;;;;;;;-1.79;100.00;97416.34;5033522;28;20056;-76
2022/03/05 05:33:56;;;;;;;176.57;76.65;;;;;;;-1.68;100.00;97417.91;5035220;28;20119;-76
2022/03/05 05:36:21;;;;;;;158.70;69.30;;;;;;;-1.28;100.00;97425.09;5032515;28;20033;-76
2022/03/05 05:38:47;;;;;;;123.88;55.47;;;;;;;-0.89;100.00;97434.84;5027846;28;20029;-76
2022/03/05 05:41:14;;;;;;;133.75;58.65;;;;;;;-0.36;100.00;97431.16;5019989;28;20035;-77
2022/03/05 05:43:40;;;;;;;126.15;54.80;;;;;;;0.00;96.38;97438.25;5031559;28;20060;-77
2022/03/05 05:46:06;;;;;;;122.93;56.47;;;;;;;0.51;91.68;97436.19;5034742;28;20056;-77
2022/03/05 05:48:31;;;;;;;135.57;60.92;;;;;;;0.97;88.58;97435.91;5024452;28;20024;-75
2022/03/05 05:50:57;;;;;;;131.63;60.17;;;;;;;1.23;84.53;97435.19;5019872;28;20026;-76
2022/03/05 05:53:25;;;;;;;117.90;55.05;;;;;;;1.12;83.80;97444.28;5022811;28;20036;-76
2022/03/05 05:55:53;;;;;;;106.88;46.92;;;;;;;0.60;85.46;97450.00;5031455;28;20029;-76
2022/03/05 05:58:19;;;;;;;111.88;51.85;;;;;;;0.17;88.50;97458.03;5015951;28;20021;-77
2022/03/05 06:00:45;;;;;;;119.28;50.70;;;;;;;0.04;91.39;97459.22;5034230;28;20045;-76
2022/03/05 06:03:11;;;;;;;132.90;60.35;;;;;;;-0.01;91.93;97456.69;5025561;28;20064;-86
2022/03/05 06:05:36;;;;;;;158.00;69.60;;;;;;;0.20;91.42;97473.75;5036998;28;20033;-85
2022/03/05 06:08:02;;;;;;;199.98;86.75;;;;;;;0.32;90.63;97473.47;5035964;28;20036;-84
2022/03/05 06:10:28;;;;;;;215.32;95.40;;;;;;;0.32;91.38;97484.88;5026746;28;20029;-84
2022/03/05 06:12:53;;;;;;;183.23;82.20;;;;;;;0.35;92.23;97494.44;5050980;28;20035;-86
2022/03/05 06:15:19;;;;;;;150.95;66.45;;;;;;;0.34;93.07;97483.06;5025068;28;20040;-84
2022/03/05 06:17:45;;;;;;;119.18;55.17;;;;;;;0.24;92.09;97478.94;5024189;28;20029;-84
2022/03/05 06:20:11;;;;;;;110.63;50.50;;;;;;;0.43;92.30;97493.38;5016715;28;20030;-84
2022/03/05 06:22:37;;;;;;;106.47;46.17;;;;;;;0.54;91.51;97472.09;5037218;28;20338;-86
2022/03/05 06:25:04;;;;;;;101.38;49.20;;;;;;;0.63;90.88;97485.03;5026793;28;20023;-84
2022/03/05 06:27:30;;;;;;;118.00;54.92;;;;;;;0.80;89.38;97480.19;5027153;28;20428;-85
2022/03/05 06:29:56;;;;;;;155.15;68.13;;;;;;;0.98;89.82;97489.44;5029936;28;20026;-85
2022/03/05 06:32:21;;;;;;;155.30;70.65;;;;;;;1.09;88.03;97485.59;5034469;28;20036;-86
2022/03/05 06:34:47;;;;;;;176.00;82.82;;;;;;;1.02;86.22;97473.50;5023174;28;20029;-85
2022/03/05 06:37:13;;;;;;;168.50;77.55;;;;;;;1.31;86.19;97487.69;5032079;28;20053;-84
2022/03/05 06:39:39;;;;;;;161.77;75.28;;;;;;;1.39;85.12;97468.13;5040177;28;20112;-85
2022/03/05 06:42:05;;;;;;;165.43;76.57;;;;;;;1.54;83.78;97494.06;5016988;28;20112;-83
2022/03/05 06:44:31;;;;;;;155.70;70.53;;;;;;;1.67;83.48;97475.25;5016683;28;20386;-85
2022/03/05 06:46:58;;;;;;;165.90;78.55;;;;;;;1.93;82.82;97496.50;5025148;28;20059;-84
2022/03/05 06:49:23;;;;;;;170.75;79.15;;;;;;;2.02;81.56;97499.72;5033760;28;20116;-85
2022/03/05 06:51:49;;;;;;;174.85;83.45;;;;;;;2.11;81.80;97495.94;5045882;28;20117;-85
2022/03/05 06:54:15;;;;;;;178.35;80.72;;;;;;;2.26;80.80;97492.84;5030767;28;20029;-84
2022/03/05 06:56:41;;;;;;;192.52;89.07;;;;;;;2.90;78.37;97504.03;5026703;28;20175;-85
2022/03/05 06:59:06;;;;;;;156.07;73.47;;;;;;;3.33;75.59;97498.19;5027260;28;20029;-83
2022/03/05 07:01:32;;;;;;;178.43;88.60;;;;;;;3.22;74.52;97495.91;5018050;28;20438;-85
2022/03/05 07:03:58;;;;;;;165.57;82.07;;;;;;;3.30;74.24;97483.28;5026394;28;20104;-86
2022/03/05 07:06:23;;;;;;;146.00;70.25;;;;;;;3.72;73.55;97494.16;5018820;28;20035;-87
2022/03/05 07:08:49;;;;;;;150.75;73.63;;;;;;;3.83;72.83;97490.22;5015443;28;20418;-84
2022/03/05 07:11:14;;;;;;;136.57;66.38;;;;;;;4.33;71.15;97484.81;5045774;28;20096;-85
2022/03/05 07:13:40;;;;;;;132.73;65.50;;;;;;;4.31;69.83;97482.22;5022810;28;20493;-85
2022/03/05 07:16:06;;;;;;;126.78;62.95;;;;;;;4.61;69.36;97482.84;5034721;28;20477;-86
2022/03/05 07:18:32;;;;;;;130.80;61.72;;;;;;;4.97;67.40;97482.25;5017510;28;20029;-85
2022/03/05 07:20:58;;;;;;;122.43;62.13;;;;;;;5.25;65.60;97494.31;5025295;28;20412;-84
2022/03/05 07:23:24;;;;;;;130.77;63.10;;;;;;;5.39;64.88;97494.59;5050730;28;20032;-85
2022/03/05 07:25:50;;;;;;;132.05;62.60;;;;;;;4.83;66.50;97494.28;5042373;28;20029;-87
2022/03/05 07:28:15;;;;;;;126.90;63.95;;;;;;;4.46;68.27;97507.22;5032851;28;20485;-86
2022/03/05 07:30:42;;;;;;;119.22;60.90;;;;;;;3.81;71.81;97502.59;5032678;28;20033;-86
2022/03/05 07:33:08;;;;;;;124.15;57.80;;;;;;;3.48;73.56;97506.44;5026693;28;20024;-86
2022/03/05 07:35:34;;;;;;;121.45;61.42;;;;;;;3.32;73.91;97491.19;5016942;28;20493;-83
2022/03/05 07:37:59;;;;;;;130.02;63.50;;;;;;;3.61;74.39;97505.13;5030849;28;20052;-85
2022/03/05 07:40:25;;;;;;;106.90;49.28;;;;;;;3.47;74.91;97502.09;5022256;28;20036;-85
2022/03/05 07:42:51;;;;;;;94.60;47.67;;;;;;;3.32;76.14;97507.03;5024469;28;20055;-84
2022/03/05 07:45:16;;;;;;;92.47;44.28;;;;;;;3.34;76.72;97511.38;5044659;28;20077;-85
2022/03/05 07:47:42;;;;;;;90.30;43.42;;;;;;;2.96;76.43;97478.28;5025614;28;20127;-86
2022/03/05 07:50:08;;;;;;;82.25;41.35;;;;;;;2.98;77.54;97502.03;5034502;28;20035;-85
2022/03/05 07:52:34;;;;;;;87.35;41.80;;;;;;;3.17;77.43;97500.47;5025964;28;20092;-84
2022/03/05 07:55:00;;;;;;;75.57;38.45;;;;;;;3.19;77.67;97504.81;5023705;28;20037;-86
2022/03/05 07:57:25;;;;;;;89.15;37.53;;;;;;;3.19;77.33;97481.03;5031203;28;20041;-87
2022/03/05 07:59:51;;;;;;;75.55;38.03;;;;;;;3.71;76.44;97505.66;5034927;28;20052;-85
2022/03/05 08:02:17;;;;;;;70.90;34.83;;;;;;;4.01;73.65;97487.81;5031023;28;20025;-84
2022/03/05 08:04:44;;;;;;;73.13;38.22;;;;;;;4.32;71.80;97491.91;5019157;28;20056;-84
2022/03/05 08:07:10;;;;;;;74.63;38.05;;;;;;;4.69;70.21;97487.81;5015313;28;20033;-85
2022/03/05 08:09:36;;;;;;;69.97;37.38;;;;;;;4.61;70.25;97489.91;5030438;28;20036;-85
2022/03/05 08:12:03;;;;;;;83.63;43.40;;;;;;;4.87;69.17;97477.34;5029936;28;20029;-85
2022/03/05 08:14:29;;;;;;;81.22;43.55;;;;;;;5.41;67.33;97481.28;5036839;28;20419;-85
2022/03/05 08:16:54;;;;;;;80.80;41.97;;;;;;;5.59;66.08;97485.81;5030502;28;20038;-86
2022/03/05 08:19:20;;;;;;;79.05;42.78;;;;;;;5.89;64.28;97486.28;5030811;28;20093;-85
2022/03/05 08:21:45;;;;;;;97.65;44.92;;;;;;;6.31;62.63;97483.47;5032688;28;20045;-84
2022/03/05 08:24:11;;;;;;;84.40;44.20;;;;;;;6.48;61.81;97480.91;5022377;28;20021;-84
2022/03/05 08:26:37;;;;;;;89.43;46.35;;;;;;;6.46;60.23;97456.22;5030570;28;20143;-85
2022/03/05 08:29:03;;;;;;;96.75;47.58;;;;;;;7.25;57.93;97481.56;5031098;28;20026;-85
2022/03/05 08:31:31;;;;;;;96.45;49.63;;;;;;;7.62;56.40;97458.34;5028553;28;20128;-84
2022/03/05 08:34:01;;;;;;;100.20;51.85;;;;;;;8.40;53.88;97467.56;5028130;28;20147;-85
2022/03/05 08:36:27;;;;;;;102.78;54.70;;;;;;;7.96;54.35;97467.25;5017757;28;20409;-85
2022/03/05 08:38:53;;;;;;;105.28;55.97;;;;;;;8.09;54.85;97469.16;5030684;28;20037;-85
2022/03/05 08:41:19;;;;;;;116.70;60.65;;;;;;;9.00;52.62;97461.47;5018599;28;20044;-84
2022/03/05 08:43:45;;;;;;;99.57;48.58;;;;;;;9.77;50.09;97445.31;5036752;28;20135;-86
2022/03/05 08:46:10;;;;;;;95.68;48.47;;;;;;;9.41;49.88;97435.03;5034877;28;20048;-85
2022/03/05 08:48:36;;;;;;;122.00;60.05;;;;;;;8.81;51.68;97454.56;5025279;28;20515;-84
2022/03/05 08:51:03;;;;;;;122.95;62.83;;;;;;;9.14;51.76;97456.19;5026433;28;20029;-84
2022/03/05 08:53:28;;;;;;;123.95;67.68;;;;;;;9.57;50.32;97456.31;5020241;28;20049;-85
2022/03/05 08:55:54;;;;;;;132.77;74.93;;;;;;;9.52;50.73;97455.75;5042363;28;20076;-85
2022/03/05 08:58:20;;;;;;;137.60;75.20;;;;;;;9.67;49.13;97449.50;5036774;28;20028;-85
2022/03/05 09:00:46;;;;;;;141.55;76.47;;;;;;;9.72;49.08;97450.94;5028315;28;20029;-85
2022/03/05 09:03:12;;;;;;;136.88;72.65;;;;;;;9.81;49.00;97441.53;5027335;28;20036;-84
2022/03/05 09:05:37;;;;;;;115.50;61.13;;;;;;;9.75;47.93;97457.94;5028755;28;20021;-85
2022/03/05 09:08:04;;;;;;;110.18;53.75;;;;;;;9.13;49.15;97450.94;5026867;28;20035;-85
2022/03/05 09:10:29;;;;;;;95.13;51.55;;;;;;;9.09;49.00;97442.25;5030426;28;20393;-85
2022/03/05 09:12:55;;;;;;;104.90;54.47;;;;;;;9.33;49.17;97455.09;5028401;28;20037;-85
2022/03/05 09:15:21;;;;;;;115.60;51.22;;;;;;;9.18;49.61;97457.72;5020947;28;20025;-86
2022/03/05 09:17:47;;;;;;;95.07;50.22;;;;;;;9.28;49.42;97452.72;5029775;28;20131;-85
2022/03/05 09:20:13;;;;;;;110.40;52.17;;;;;;;9.07;49.69;97470.84;5028185;28;20112;-85
2022/03/05 09:22:38;;;;;;;64.50;34.58;;;;;;;9.15;49.22;97455.25;5030299;28;20016;-85
2022/03/05 09:25:05;;;;;;;64.05;32.13;;;;;;;9.41;48.40;97455.53;5027131;28;20120;-85
2022/03/05 09:27:31;;;;;;;65.82;30.55;;;;;;;10.01;47.61;97449.19;5037104;28;20107;-85
2022/03/05 09:29:58;;;;;;;57.72;29.17;;;;;;;9.92;46.78;97439.06;5029091;28;20041;-86
2022/03/05 09:32:23;;;;;;;69.57;33.35;;;;;;;10.96;44.69;97431.53;5033039;28;20031;-85
2022/03/05 09:34:49;;;;;;;56.50;29.98;;;;;;;11.70;43.66;97433.72;5038764;28;20491;-86
2022/03/05 09:37:15;;;;;;;50.38;27.65;;;;;;;11.03;43.31;97426.66;5025841;28;20072;-85
2022/03/05 09:39:40;;;;;;;45.35;26.80;;;;;;;9.91;45.19;97447.16;5036666;28;20086;-86
2022/03/05 09:42:06;;;;;;;48.22;27.20;;;;;;;10.56;44.57;97440.41;5027943;28;20392;-86
2022/03/05 09:44:33;;;;;;;46.15;25.73;;;;;;;11.12;43.36;97440.28;5034259;28;20021;-84
2022/03/05 09:47:00;;;;;;;112.30;49.58;;;;;;;10.52;43.57;97431.72;5020275;28;20096;-87
2022/03/05 09:49:27;;;;;;;42.63;23.65;;;;;;;11.31;42.92;97430.09;5036101;28;20039;-86
2022/03/05 09:51:53;;;;;;;38.88;23.98;;;;;;;11.42;43.40;97440.06;5032772;28;20096;-86
2022/03/05 09:54:19;;;;;;;60.20;27.65;;;;;;;11.98;42.25;97413.94;5031897;28;20021;-85
2022/03/05 09:56:45;;;;;;;39.17;23.25;;;;;;;12.14;41.91;97412.75;5020343;28;20039;-84
2022/03/05 09:59:11;;;;;;;41.20;23.45;;;;;;;12.77;40.36;97409.09;5036148;28;20048;-86
2022/03/05 10:01:36;;;;;;;44.90;23.05;;;;;;;12.47;40.30;97413.03;5041085;28;20029;-85
2022/03/05 10:04:02;;;;;;;36.10;20.48;;;;;;;12.68;39.61;97394.53;5023026;28;20040;-84
2022/03/05 10:06:28;;;;;;;42.35;23.27;;;;;;;12.61;41.18;97412.06;5027199;28;20037;-85
2022/03/05 10:08:55;;;;;;;40.63;23.17;;;;;;;13.04;41.70;97412.47;5026889;28;20060;-85
2022/03/05 10:11:25;;;;;;;39.05;22.38;;;;;;;13.25;40.30;97408.22;5025505;28;20401;-85
2022/03/05 10:13:50;;;;;;;38.42;22.00;;;;;;;12.98;39.39;97400.31;5034305;28;20054;-88
2022/03/05 10:16:32;;;;;;;37.60;21.95;;;;;;;12.54;39.99;97409.91;5028116;28;20033;-86
2022/03/05 10:19:18;;;;;;;34.90;21.33;;;;;;;11.51;42.00;97406.44;5025618;28;20500;-86
2022/03/05 10:22:03;;;;;;;34.30;21.02;;;;;;;12.40;40.81;97411.75;5047592;28;20040;-86
2022/03/05 10:24:39;;;;;;;48.03;28.90;;;;;;;13.36;39.07;97397.50;5034832;28;20029;-86
2022/03/05 10:27:07;;;;;;;40.03;23.38;;;;;;;14.25;37.66;97386.09;5037183;28;21444;-86
2022/03/05 10:29:35;;;;;;;37.33;22.15;;;;;;;12.99;39.60;97393.13;5042692;28;20037;-86
2022/03/05 10:32:04;;;;;;;50.28;23.77;;;;;;;13.21;40.27;97398.66;5039651;28;20108;-84
2022/03/05 10:34:52;;;;;;;42.70;22.80;;;;;;;12.97;40.73;97395.94;5039358;28;20057;-87
2022/03/05 10:37:22;;;;;;;39.38;22.45;;;;;;;12.02;40.86;97392.19;5043390;28;20029;-86
2022/03/05 10:39:49;;;;;;;49.25;27.42;;;;;;;11.17;42.43;97410.53;5044780;28;20028;-86
2022/03/05 10:42:27;;;;;;;43.05;23.35;;;;;;;10.67;44.82;97408.50;5031925;28;20029;-86
2022/03/05 10:45:05;;;;;;;48.67;23.75;;;;;;;11.10;44.67;97406.56;5023663;28;20033;-87
2022/03/05 10:47:41;;;;;;;39.10;22.98;;;;;;;11.12;43.53;97396.59;5024942;28;20036;-86
2022/03/05 10:50:30;;;;;;;38.05;23.52;;;;;;;10.99;43.35;97399.22;5027141;28;20052;-87
2022/03/05 10:53:02;;;;;;;42.70;22.35;;;;;;;11.28;44.74;97406.19;5017282;28;20059;-85
2022/03/05 10:55:37;;;;;;;64.00;25.70;;;;;;;11.36;43.22;97393.13;5025963;28;20037;-85
2022/03/05 10:58:06;;;;;;;43.17;23.00;;;;;;;10.94;43.81;97387.97;5029336;28;20061;-85
2022/03/05 11:00:32;;;;;;;41.90;22.67;;;;;;;10.71;43.92;97386.78;5047456;28;20043;-87
2022/03/05 11:03:00;;;;;;;41.45;24.55;;;;;;;10.57;44.50;97375.28;5028047;28;20033;-87
2022/03/05 11:05:26;;;;;;;43.00;23.90;;;;;;;10.07;45.29;97392.69;5027277;28;20051;-87
2022/03/05 11:07:54;;;;;;;42.35;24.05;;;;;;;10.32;45.12;97384.00;5015123;28;20467;-88
2022/03/05 11:10:23;;;;;;;46.13;25.40;;;;;;;10.42;45.99;97381.63;5012655;28;20112;-87
2022/03/05 11:12:56;;;;;;;46.47;27.45;;;;;;;10.65;45.77;97375.63;5017882;28;20500;-87
2022/03/05 11:15:23;;;;;;;47.47;26.35;;;;;;;10.48;44.79;97382.09;5031623;28;20025;-86